createdAt,value
2019-01-05T00:02:14.418Z,14.57
2019-01-05T00:05:01.674Z,15.83
2019-01-05T00:07:41.865Z,15.30
2019-01-05T00:10:19.094Z,15.03
2019-01-05T00:12:58.950Z,15.23
2019-01-05T00:15:46.225Z,15.63
2019-01-05T00:18:33.317Z,15.43
2019-01-05T00:21:05.051Z,16.83
2019-01-05T00:23:36.247Z,16.67
2019-01-05T00:26:16.171Z,17.20
2019-01-05T00:28:47.348Z,17.10
2019-01-05T00:31:22.504Z,17.77
2019-01-05T00:33:59.215Z,17.30
2019-01-05T00:36:48.944Z,17.27
2019-01-05T00:39:37.912Z,19.37
2019-01-05T00:42:18.930Z,18.47
2019-01-05T00:44:52.958Z,18.87
2019-01-05T00:47:29.326Z,17.43
2019-01-05T00:50:05.675Z,17.30
2019-01-05T00:52:54.775Z,18.53
2019-01-05T00:55:31.982Z,18.57
2019-01-05T00:58:14.929Z,18.10
2019-01-05T01:00:51.989Z,18.23
2019-01-05T01:03:22.901Z,16.23
2019-01-05T01:06:09.104Z,18.00
2019-01-05T01:08:45.799Z,17.43
2019-01-05T01:11:25.517Z,18.17
2019-01-05T01:13:59.231Z,17.37
2019-01-05T01:16:42.246Z,17.47
2019-01-05T01:19:22.038Z,18.67
2019-01-05T01:21:59.239Z,16.97
2019-01-05T01:24:30.484Z,17.90
2019-01-05T01:27:04.152Z,16.83
2019-01-05T01:29:40.851Z,18.17
2019-01-05T01:32:17.326Z,17.87
2019-01-05T01:34:50.897Z,17.73
2019-01-05T01:37:38.183Z,18.63
2019-01-05T01:40:09.440Z,18.27
2019-01-05T01:42:40.335Z,18.33
2019-01-05T01:45:11.216Z,18.03
2019-01-05T01:47:58.398Z,18.43
2019-01-05T01:50:32.046Z,15.97
2019-01-05T01:53:22.098Z,17.43
2019-01-05T01:56:01.626Z,16.97
2019-01-05T01:58:41.380Z,17.10
2019-01-05T02:01:12.786Z,16.00
2019-01-05T02:04:00.407Z,16.03
2019-01-05T02:06:48.718Z,15.23
2019-01-05T02:09:20.935Z,15.30
2019-01-05T02:12:07.472Z,14.73
2019-01-05T02:14:42.871Z,13.73
2019-01-05T02:17:32.111Z,13.13
2019-01-05T02:20:33.249Z,13.13
2019-01-05T02:23:43.866Z,12.03
2019-01-05T02:26:47.778Z,12.57
2019-01-05T02:29:46.666Z,13.47
2019-01-05T02:33:01.010Z,12.30
2019-01-05T02:36:07.713Z,11.87
2019-01-05T02:38:56.372Z,12.43
2019-01-05T02:41:52.307Z,12.80
2019-01-05T02:44:34.980Z,12.93
2019-01-05T02:47:23.683Z,12.60
2019-01-05T02:50:21.415Z,11.90
2019-01-05T02:53:11.823Z,11.20
2019-01-05T02:56:19.834Z,12.73
2019-01-05T02:59:27.158Z,12.27
2019-01-05T03:02:35.230Z,12.20
2019-01-05T03:05:37.447Z,11.90
2019-01-05T03:08:32.229Z,12.80
2019-01-05T03:11:21.008Z,13.43
2019-01-05T03:14:26.574Z,12.23
2019-01-05T03:17:24.780Z,13.67
2019-01-05T03:20:30.331Z,12.80
2019-01-05T03:23:43.144Z,14.10
2019-01-05T03:26:17.002Z,13.93
2019-01-05T03:29:22.575Z,14.43
2019-01-05T03:32:15.193Z,14.93
2019-01-05T03:35:00.834Z,14.47
2019-01-05T03:38:16.979Z,14.27
2019-01-05T03:41:01.957Z,13.70
2019-01-05T03:43:52.764Z,14.03
2019-01-05T03:50:13.635Z,13.23
2019-01-05T03:53:05.347Z,13.70
2019-01-05T03:55:48.019Z,11.60
2019-01-05T03:58:48.699Z,13.17
2019-01-05T04:01:59.672Z,13.10
2019-01-05T04:04:48.663Z,11.73
2019-01-05T04:07:49.495Z,11.83
2019-01-05T04:10:39.725Z,13.07
2019-01-05T04:13:13.549Z,12.00
2019-01-05T04:16:08.221Z,12.60
2019-01-05T04:19:23.554Z,10.23
2019-01-05T04:22:22.969Z,10.57
2019-01-05T04:25:37.991Z,10.00
2019-01-05T04:28:36.039Z,9.03
2019-01-05T04:31:39.540Z,8.43
2019-01-05T04:34:44.942Z,8.97
2019-01-05T04:38:02.960Z,8.27
2019-01-05T04:40:51.526Z,7.57
2019-01-05T04:43:49.275Z,6.37
2019-01-05T04:46:28.789Z,5.97
2019-01-05T04:49:35.840Z,5.20
2019-01-05T04:52:33.362Z,5.07
2019-01-05T04:55:45.022Z,3.73
2019-01-05T04:58:43.828Z,3.50
2019-01-05T05:01:43.091Z,3.30
2019-01-05T05:04:23.112Z,2.80
2019-01-05T05:07:33.120Z,2.40
2019-01-05T05:10:21.835Z,1.90
2019-01-05T05:13:16.823Z,1.73
2019-01-05T05:16:14.484Z,1.90
2019-01-05T05:19:16.911Z,2.17
2019-01-05T05:21:59.202Z,2.37
2019-01-05T05:24:47.374Z,2.63
2019-01-05T05:27:35.862Z,3.07
2019-01-05T05:30:45.881Z,3.00
2019-01-05T05:33:46.940Z,3.87
2019-01-05T05:36:40.788Z,4.30
2019-01-05T05:39:26.179Z,4.40
2019-01-05T05:42:32.134Z,6.13
2019-01-05T05:45:25.132Z,6.47
2019-01-05T05:48:32.003Z,7.87
2019-01-05T05:51:23.945Z,7.63
2019-01-05T05:54:33.958Z,8.40
2019-01-05T05:57:40.840Z,8.50
2019-01-05T06:00:32.382Z,8.97
2019-01-05T06:03:11.856Z,8.90
2019-01-05T06:05:56.840Z,9.83
2019-01-05T06:09:01.655Z,9.33
2019-01-05T06:12:00.843Z,8.27
2019-01-05T06:15:13.762Z,8.50
2019-01-05T06:17:56.675Z,8.63
2019-01-05T06:21:08.289Z,8.17
2019-01-05T06:24:17.217Z,7.73
2019-01-05T06:27:10.365Z,8.20
2019-01-05T06:30:27.343Z,7.93
2019-01-05T06:33:29.743Z,7.57
2019-01-05T06:36:28.937Z,7.60
2019-01-05T06:39:14.523Z,8.03
2019-01-05T06:42:05.849Z,7.63
2019-01-05T06:45:14.222Z,7.20
2019-01-05T06:48:27.084Z,8.53
2019-01-05T06:51:17.309Z,8.87
2019-01-05T06:53:56.921Z,9.57
2019-01-05T06:56:53.072Z,8.90
2019-01-05T06:59:51.109Z,9.03
2019-01-05T07:02:45.743Z,9.80
2019-01-05T07:05:57.422Z,9.43
2019-01-05T07:08:50.763Z,8.97
2019-01-05T07:11:42.816Z,8.60
2019-01-05T07:14:51.376Z,9.70
2019-01-05T07:17:48.915Z,8.80
2019-01-05T07:20:37.630Z,7.67
2019-01-05T07:23:43.162Z,8.37
2019-01-05T07:26:53.246Z,9.53
2019-01-05T07:30:16.595Z,8.50
2019-01-05T07:33:15.345Z,9.83
2019-01-05T07:36:09.995Z,9.43
2019-01-05T07:38:49.131Z,9.70
2019-01-05T07:41:45.623Z,9.73
2019-01-05T07:44:49.469Z,10.07
2019-01-05T07:48:14.829Z,9.83
2019-01-05T07:51:19.838Z,9.47
2019-01-05T07:54:11.692Z,9.07
2019-01-05T07:56:57.182Z,9.50
2019-01-05T07:59:59.284Z,10.07
2019-01-05T08:03:09.002Z,9.93
2019-01-05T08:05:51.595Z,8.20
2019-01-05T08:08:49.028Z,7.70
2019-01-05T08:12:00.891Z,6.63
2019-01-05T08:15:11.736Z,7.57
2019-01-05T08:18:09.879Z,6.40
2019-01-05T08:21:22.781Z,6.67
2019-01-05T08:24:26.312Z,6.53
2019-01-05T08:27:37.152Z,5.60
2019-01-05T08:30:30.313Z,6.87
2019-01-05T08:33:23.328Z,7.03
2019-01-05T08:36:36.391Z,7.37
2019-01-05T08:39:45.579Z,8.73
2019-01-05T08:43:02.181Z,7.60
2019-01-05T08:46:15.476Z,9.50
2019-01-05T08:49:25.756Z,10.10
2019-01-05T08:52:23.395Z,10.13
2019-01-05T08:55:21.228Z,12.50
2019-01-05T08:58:33.643Z,13.50
2019-01-05T09:01:34.961Z,14.00
2019-01-05T09:04:41.852Z,13.07
2019-01-05T09:08:05.305Z,14.63
2019-01-05T09:11:18.170Z,14.27
2019-01-05T09:14:21.983Z,14.23
2019-01-05T09:17:13.609Z,15.67
2019-01-05T09:19:59.024Z,14.97
2019-01-05T09:22:58.152Z,16.13
2019-01-05T09:26:23.058Z,15.13
2019-01-05T09:29:15.882Z,14.27
2019-01-05T09:32:24.164Z,14.50
2019-01-05T09:35:26.492Z,13.90
2019-01-05T09:38:19.035Z,12.83
2019-01-05T09:41:20.800Z,14.90
2019-01-05T09:44:18.420Z,14.10
2019-01-05T09:47:22.373Z,14.20
2019-01-05T09:50:27.706Z,12.73
2019-01-05T09:53:13.377Z,13.53
2019-01-05T09:56:11.212Z,13.30
2019-01-05T09:59:11.748Z,11.80
2019-01-05T10:02:09.362Z,12.80
2019-01-05T10:04:55.023Z,12.30
2019-01-05T10:07:40.669Z,13.27
2019-01-05T10:10:31.741Z,11.10
2019-01-05T10:13:14.360Z,12.53
2019-01-05T10:16:32.353Z,11.37
2019-01-05T10:19:40.424Z,12.10
2019-01-05T10:23:03.930Z,11.03
2019-01-05T10:25:46.645Z,10.70
2019-01-05T10:28:47.527Z,10.90
2019-01-05T10:31:47.077Z,11.93
2019-01-05T10:34:58.561Z,11.23
2019-01-05T10:38:17.586Z,10.50
2019-01-05T10:41:33.488Z,11.07
2019-01-05T10:44:16.331Z,13.20
2019-01-05T10:47:01.834Z,11.53
2019-01-05T10:50:04.827Z,11.53
2019-01-05T10:52:53.717Z,13.43
2019-01-05T10:55:54.289Z,24.73
2019-01-05T10:58:46.361Z,28.20
2019-01-05T11:01:32.034Z,24.83
2019-01-05T11:04:44.236Z,37.50
2019-01-05T11:07:30.129Z,26.90
2019-01-05T11:10:49.184Z,33.03
2019-01-05T11:14:01.963Z,16.07
2019-01-05T11:16:53.628Z,12.10
2019-01-05T11:20:07.287Z,11.87
2019-01-05T11:23:15.549Z,11.43
2019-01-05T11:26:08.965Z,11.60
2019-01-05T11:29:25.115Z,11.73
2019-01-05T11:32:23.175Z,12.73
2019-01-05T11:35:26.924Z,10.30
2019-01-05T11:38:15.854Z,10.20
2019-01-05T11:41:13.499Z,11.33
2019-01-05T11:44:22.174Z,9.67
2019-01-05T11:47:10.899Z,10.23
2019-01-05T11:50:14.663Z,10.53
2019-01-05T11:53:12.630Z,10.50
2019-01-05T11:56:18.057Z,10.17
2019-01-05T11:59:16.053Z,10.60
2019-01-05T12:02:19.771Z,10.73
2019-01-05T12:04:59.562Z,8.93
2019-01-05T12:08:12.556Z,10.57
2019-01-05T12:11:11.320Z,10.33
2019-01-05T12:14:19.871Z,10.57
2019-01-05T12:17:02.713Z,11.30
2019-01-05T12:19:39.210Z,10.20
2019-01-05T12:22:29.109Z,11.20
2019-01-05T12:25:29.961Z,11.17
2019-01-05T12:28:38.387Z,12.10
2019-01-05T12:31:30.368Z,12.47
2019-01-05T12:34:26.742Z,11.57
2019-01-05T12:37:35.137Z,12.00
2019-01-05T12:40:45.042Z,11.87
2019-01-05T12:43:47.718Z,11.13
2019-01-05T12:46:49.549Z,11.33
2019-01-05T12:49:40.857Z,11.60
2019-01-05T12:52:38.815Z,12.20
2019-01-05T12:55:32.237Z,12.57
2019-01-05T12:58:45.334Z,12.67
2019-01-05T13:01:53.852Z,12.53
2019-01-05T13:04:57.431Z,12.63
2019-01-05T13:07:52.153Z,12.23
2019-01-05T13:11:13.898Z,13.03
2019-01-05T13:14:05.510Z,12.93
2019-01-05T13:17:19.535Z,13.20
2019-01-05T13:20:31.305Z,12.80
2019-01-05T13:23:19.848Z,12.57
2019-01-05T13:26:14.269Z,12.17
2019-01-05T13:29:22.646Z,14.07
2019-01-05T13:32:24.308Z,12.40
2019-01-05T13:35:21.018Z,12.20
2019-01-05T13:38:30.981Z,12.50
2019-01-05T13:41:24.244Z,12.57
2019-01-05T13:44:26.992Z,12.37
2019-01-05T13:47:31.157Z,12.17
2019-01-05T13:50:34.529Z,11.50
2019-01-05T13:53:26.044Z,12.53
2019-01-05T13:56:00.089Z,12.47
2019-01-05T13:58:36.748Z,13.30
2019-01-05T14:01:07.918Z,13.53
2019-01-05T14:03:56.858Z,13.30
2019-01-05T14:06:27.769Z,13.10
2019-01-05T14:09:01.397Z,13.27
2019-01-05T14:11:32.325Z,14.53
2019-01-05T14:14:24.212Z,13.10
2019-01-05T14:16:55.086Z,12.70
2019-01-05T14:19:38.026Z,15.50
2019-01-05T14:22:25.324Z,18.23
2019-01-05T14:24:59.435Z,13.57
2019-01-05T14:27:46.453Z,13.83
2019-01-05T14:30:20.321Z,14.93
2019-01-05T14:33:03.230Z,12.43
2019-01-05T14:35:50.666Z,12.20
2019-01-05T14:38:24.346Z,11.33
2019-01-05T14:40:57.982Z,11.33
2019-01-05T14:43:31.501Z,11.40
2019-01-05T14:46:18.899Z,11.40
2019-01-05T14:48:49.797Z,10.93
2019-01-05T14:51:20.664Z,9.60
2019-01-05T14:53:51.566Z,10.70
2019-01-05T14:56:31.612Z,9.80
2019-01-05T14:59:19.086Z,10.50
2019-01-05T15:02:01.995Z,9.97
2019-01-05T15:04:48.259Z,10.07
2019-01-05T15:07:25.227Z,9.10
2019-01-05T15:10:05.368Z,8.90
2019-01-05T15:12:42.291Z,9.17
2019-01-05T15:15:22.004Z,8.43
2019-01-05T15:17:56.186Z,8.53
2019-01-05T15:20:35.893Z,8.30
2019-01-05T15:23:15.620Z,9.17
2019-01-05T15:25:52.336Z,8.23
2019-01-05T15:28:26.201Z,9.60
2019-01-05T15:30:57.057Z,9.30
2019-01-05T15:33:42.995Z,7.93
2019-01-05T15:36:19.989Z,8.63
2019-01-05T15:38:53.567Z,9.87
2019-01-05T15:41:40.776Z,9.67
2019-01-05T15:44:20.723Z,10.00
2019-01-05T15:46:54.277Z,9.80
2019-01-05T15:49:42.895Z,9.20
2019-01-05T15:52:30.121Z,9.70
2019-01-05T15:55:17.554Z,9.27
2019-01-05T15:57:48.433Z,9.67
2019-01-05T16:00:35.729Z,8.77
2019-01-05T16:03:06.624Z,10.37
2019-01-05T16:05:40.215Z,9.13
2019-01-05T16:08:16.890Z,8.60
2019-01-05T16:11:04.284Z,8.63
2019-01-05T16:13:35.186Z,9.30
2019-01-05T16:16:06.083Z,9.83
2019-01-05T16:18:53.221Z,10.30
2019-01-05T16:21:29.826Z,10.90
2019-01-05T16:24:15.832Z,11.40
2019-01-05T16:27:02.740Z,11.03
2019-01-05T16:29:50.174Z,11.70
2019-01-05T16:32:26.911Z,11.10
2019-01-05T16:34:58.192Z,12.40
2019-01-05T16:37:45.484Z,11.03
2019-01-05T16:40:31.983Z,11.73
2019-01-05T16:43:18.940Z,11.87
2019-01-05T16:46:06.401Z,10.93
2019-01-05T16:48:46.498Z,11.03
2019-01-05T16:51:33.841Z,11.90
2019-01-05T16:54:19.845Z,11.20
2019-01-05T16:56:59.533Z,10.87
2019-01-05T16:59:45.563Z,10.90
2019-01-05T17:02:29.768Z,10.63
2019-01-05T17:05:12.750Z,11.77
2019-01-05T17:08:02.038Z,11.00
2019-01-05T17:10:51.330Z,10.60
2019-01-05T17:13:34.096Z,10.20
2019-01-05T17:16:21.456Z,11.77
2019-01-05T17:18:55.825Z,11.03
2019-01-05T17:21:38.968Z,11.77
2019-01-05T17:24:12.909Z,11.87
2019-01-05T17:26:43.745Z,11.43
2019-01-05T17:29:29.924Z,11.53
2019-01-05T17:32:03.819Z,13.13
2019-01-05T17:34:51.088Z,11.83
2019-01-05T17:37:22.301Z,12.47
2019-01-05T17:40:07.965Z,12.00
2019-01-05T17:42:57.293Z,10.93
2019-01-05T17:45:33.961Z,11.50
2019-01-05T17:48:11.436Z,11.00
2019-01-05T17:50:58.732Z,11.77
2019-01-05T17:53:46.120Z,11.83
2019-01-05T17:56:33.582Z,11.33
2019-01-05T17:59:19.907Z,11.37
2019-01-05T18:01:59.790Z,12.17
2019-01-05T18:04:47.213Z,11.43
2019-01-05T18:07:34.396Z,11.77
2019-01-05T18:10:21.673Z,12.20
2019-01-05T18:12:52.587Z,12.07
2019-01-05T18:15:42.393Z,12.77
2019-01-05T18:18:31.432Z,12.50
2019-01-05T18:21:02.316Z,12.13
2019-01-05T18:23:41.783Z,13.07
2019-01-05T18:26:21.602Z,14.00
2019-01-05T18:28:59.081Z,13.30
2019-01-05T18:31:33.016Z,12.33
2019-01-05T18:34:06.690Z,12.83
2019-01-05T18:36:37.630Z,14.00
2019-01-05T18:39:25.517Z,13.57
2019-01-05T18:41:56.398Z,13.40
2019-01-05T18:44:33.348Z,12.70
2019-01-05T18:47:13.189Z,13.83
2019-01-05T18:49:56.483Z,15.00
2019-01-05T18:52:43.748Z,15.37
2019-01-05T18:55:20.823Z,16.90
2019-01-05T18:57:54.902Z,15.60
2019-01-05T19:00:25.846Z,16.20
2019-01-05T19:03:06.125Z,14.73
2019-01-05T19:05:38.448Z,14.23
2019-01-05T19:08:15.004Z,15.30
2019-01-05T19:10:51.972Z,14.00
2019-01-05T19:13:39.052Z,14.53
2019-01-05T19:16:26.396Z,14.20
2019-01-05T19:19:00.165Z,13.87
2019-01-05T19:21:43.505Z,13.80
2019-01-05T19:24:26.751Z,11.93
2019-01-05T19:27:18.054Z,13.63
2019-01-05T19:29:49.061Z,13.53
2019-01-05T19:32:22.902Z,13.33
2019-01-05T19:34:53.775Z,13.07
2019-01-05T19:37:36.827Z,13.70
2019-01-05T19:40:25.532Z,13.53
2019-01-05T19:43:08.306Z,14.20
2019-01-05T19:45:39.226Z,14.30
2019-01-05T19:48:16.162Z,16.00
2019-01-05T19:51:05.308Z,16.53
2019-01-05T19:53:52.624Z,18.13
2019-01-05T19:56:35.515Z,18.57
2019-01-05T19:59:15.391Z,18.70
2019-01-05T20:01:52.052Z,19.60
2019-01-05T20:04:39.315Z,18.37
2019-01-05T20:07:29.634Z,18.10
2019-01-05T20:10:00.542Z,18.43
2019-01-05T20:12:47.517Z,20.10
2019-01-05T20:15:27.333Z,18.17
2019-01-05T20:18:04.164Z,17.13
2019-01-05T20:20:40.904Z,17.93
2019-01-05T20:23:14.496Z,17.80
2019-01-05T20:25:51.653Z,20.53
2019-01-05T20:28:22.544Z,17.23
2019-01-05T20:30:53.446Z,16.80
2019-01-05T20:33:30.633Z,16.20
2019-01-05T20:36:07.115Z,16.87
2019-01-05T20:38:40.995Z,17.80
2019-01-05T20:41:11.933Z,18.33
2019-01-05T20:43:59.372Z,18.60
2019-01-05T20:46:30.344Z,17.57
2019-01-05T20:49:10.449Z,18.77
2019-01-05T20:51:41.357Z,17.10
2019-01-05T20:54:28.442Z,16.33
2019-01-05T20:57:08.339Z,16.03
2019-01-05T20:59:55.369Z,17.13
2019-01-05T21:02:26.284Z,17.27
2019-01-05T21:05:06.300Z,16.90
2019-01-05T21:07:39.911Z,16.23
2019-01-05T21:10:27.993Z,16.97
2019-01-05T21:12:58.907Z,15.87
2019-01-05T21:15:44.832Z,16.57
2019-01-05T21:18:31.962Z,16.27
2019-01-05T21:21:06.051Z,16.70
2019-01-05T21:23:37.050Z,17.63
2019-01-05T21:26:07.982Z,17.70
2019-01-05T21:28:39.371Z,17.73
2019-01-05T21:31:22.298Z,16.60
2019-01-05T21:33:58.683Z,17.63
2019-01-05T21:36:38.626Z,17.13
2019-01-05T21:39:27.225Z,16.97
2019-01-05T21:42:10.227Z,14.87
2019-01-05T21:44:57.217Z,15.57
2019-01-05T21:47:44.483Z,15.33
2019-01-05T21:50:30.351Z,17.23
2019-01-05T21:53:04.195Z,15.20
2019-01-05T21:55:35.115Z,17.80
2019-01-05T21:58:06.030Z,15.13
2019-01-05T22:00:36.936Z,16.80
2019-01-05T22:03:07.760Z,17.17
2019-01-05T22:05:42.043Z,15.70
2019-01-05T22:08:12.950Z,16.33
2019-01-05T22:10:43.747Z,15.77
2019-01-05T22:13:17.635Z,16.80
2019-01-05T22:15:51.336Z,16.43
2019-01-05T22:18:34.233Z,16.80
2019-01-05T22:21:17.086Z,16.07
2019-01-05T22:23:47.987Z,14.87
2019-01-05T22:26:33.918Z,13.90
2019-01-05T22:29:10.778Z,12.53
2019-01-05T22:31:57.974Z,13.13
2019-01-05T22:34:31.887Z,12.33
2019-01-05T22:37:18.979Z,12.77
2019-01-05T22:40:01.913Z,13.33
2019-01-05T22:42:39.072Z,12.83
2019-01-05T22:45:10.415Z,13.13
2019-01-05T22:47:57.698Z,12.80
2019-01-05T22:50:40.556Z,11.10
2019-01-05T22:53:27.513Z,11.90
2019-01-05T22:56:13.389Z,13.23
2019-01-05T22:58:44.297Z,13.13
2019-01-05T23:01:18.065Z,12.03
2019-01-05T23:03:51.654Z,10.50
2019-01-05T23:06:25.847Z,11.73
2019-01-05T23:08:56.749Z,11.60
2019-01-05T23:11:34.153Z,11.70
2019-01-05T23:14:11.114Z,11.87
2019-01-05T23:16:42.030Z,11.07
2019-01-05T23:19:12.982Z,10.57
2019-01-05T23:21:46.600Z,12.50
2019-01-05T23:24:23.482Z,10.40
2019-01-05T23:26:57.053Z,11.90
2019-01-05T23:29:44.150Z,12.27
2019-01-05T23:32:31.371Z,11.90
2019-01-05T23:35:18.615Z,12.63
2019-01-05T23:37:52.486Z,12.70
2019-01-05T23:40:35.413Z,13.17
2019-01-05T23:43:18.298Z,13.50
2019-01-05T23:45:51.620Z,13.73
2019-01-05T23:48:38.882Z,13.93
2019-01-05T23:51:26.210Z,12.40
2019-01-05T23:54:13.331Z,13.53
2019-01-05T23:56:56.305Z,12.90
2019-01-05T23:59:27.220Z,13.43
